Windsor Castle, Pennsylvania
Current Conditions -  °F | °C
As of 5:54 PM on Tuesday 27 Jan 2015 (Local Time) from KRDG Reporting Station
Clear Clear  
Wind Chill: 15°   Ceiling: Unl
Heat Index: 28°   Visibility: 10mi
Dew Point: 10°   Wind: 18mph
Humidity: 47%   Direction: 320°NW
Pressure: 29.77"   Gusts: NA
Location:  40.5494°N, 75.999°W
Report Text: KRDG 272254Z AUTO 32016KT 10SM CLR M02/M12 A2977 RMK AO2 SLP090 T10221122
Loading
Personal Weather Stations






























Interactive Weather Map New forecast layout! Learn more

10-Day Weather Forecast

Advertisements
Track Severe Weather on mobile